createdAt,value
2017-03-24T00:00:12.139Z,20.47
2017-03-24T00:01:22.378Z,20.51
2017-03-24T00:02:32.304Z,20.51
2017-03-24T00:03:42.548Z,20.5
2017-03-24T00:04:52.799Z,20.48
2017-03-24T00:06:03.035Z,20.5
2017-03-24T00:07:13.276Z,20.5
2017-03-24T00:08:22.894Z,20.51
2017-03-24T00:09:33.131Z,20.51
2017-03-24T00:10:43.386Z,20.43
2017-03-24T00:11:52.693Z,20.41
2017-03-24T00:13:02.940Z,20.48
2017-03-24T00:14:13.185Z,20.47
2017-03-24T00:15:23.118Z,20.52
2017-03-24T00:16:33.049Z,20.43
2017-03-24T00:17:42.978Z,20.5
2017-03-24T00:18:52.601Z,20.47
2017-03-24T00:20:02.842Z,20.54
2017-03-24T00:21:12.450Z,20.52
2017-03-24T00:22:22.380Z,20.48
2017-03-24T00:23:32.616Z,20.51
2017-03-24T00:24:42.231Z,20.47
2017-03-24T00:25:52.157Z,20.47
2017-03-24T00:27:02.087Z,20.47
2017-03-24T00:28:11.696Z,20.54
2017-03-24T00:29:21.960Z,20.47
2017-03-24T00:30:31.889Z,20.47
2017-03-24T00:31:42.125Z,20.47
2017-03-24T00:32:52.375Z,20.51
2017-03-24T00:34:02.630Z,20.47
2017-03-24T00:35:12.868Z,20.43
2017-03-24T00:44:21.487Z,20.52
2017-03-24T00:45:31.715Z,20.43
2017-03-24T00:46:41.634Z,20.47
2017-03-24T00:47:51.867Z,20.52
2017-03-24T00:49:01.786Z,20.42
2017-03-24T00:50:11.698Z,20.51
2017-03-24T00:51:21.924Z,20.48
2017-03-24T00:52:31.836Z,20.52
2017-03-24T00:53:41.754Z,20.41
2017-03-24T00:54:51.982Z,20.47
2017-03-24T00:56:02.212Z,20.54
2017-03-24T00:57:11.813Z,20.5
2017-03-24T00:58:21.735Z,20.47
2017-03-24T00:59:31.651Z,20.43
2017-03-24T01:00:41.256Z,20.51
2017-03-24T01:01:51.478Z,20.5
2017-03-24T01:03:01.710Z,20.42
2017-03-24T01:04:11.630Z,20.51
2017-03-24T01:05:21.861Z,20.51
2017-03-24T01:06:31.786Z,20.48
2017-03-24T01:07:41.699Z,20.42
2017-03-24T01:08:51.621Z,20.41
2017-03-24T01:10:01.854Z,20.47
2017-03-24T01:11:12.126Z,20.41
2017-03-24T01:12:22.362Z,20.43
2017-03-24T01:13:32.277Z,20.48
2017-03-24T01:14:42.510Z,20.43
2017-03-24T01:15:52.754Z,20.41
2017-03-24T01:17:02.981Z,20.42
2017-03-24T01:18:13.207Z,20.51
2017-03-24T01:19:23.134Z,20.47
2017-03-24T01:20:33.362Z,20.48
2017-03-24T01:21:43.274Z,20.5
2017-03-24T01:22:53.202Z,20.48
2017-03-24T01:24:03.437Z,20.43
2017-03-24T01:25:13.048Z,20.42
2017-03-24T01:26:23.283Z,20.52
2017-03-24T01:27:33.523Z,20.47
2017-03-24T01:28:43.459Z,20.51
2017-03-24T01:29:53.712Z,20.48
2017-03-24T01:31:03.342Z,20.5
2017-03-24T01:32:13.271Z,20.41
2017-03-24T01:33:23.209Z,20.48
2017-03-24T01:34:33.464Z,20.48
2017-03-24T01:35:43.711Z,20.51
2017-03-24T01:36:53.962Z,20.51
2017-03-24T01:38:04.206Z,20.5
2017-03-24T01:39:13.522Z,20.48
2017-03-24T01:40:23.153Z,20.43
2017-03-24T01:41:33.094Z,20.48
2017-03-24T01:42:43.343Z,20.39
2017-03-24T01:43:53.282Z,20.42
2017-03-24T01:45:03.524Z,20.48
2017-03-24T01:46:13.455Z,20.48
2017-03-24T01:47:23.703Z,20.41
2017-03-24T01:48:33.953Z,20.42
2017-03-24T01:49:44.199Z,20.42
2017-03-24T01:50:54.131Z,20.38
2017-03-24T01:52:04.374Z,20.41
2017-03-24T01:53:14.303Z,20.38
2017-03-24T01:54:24.245Z,20.47
2017-03-24T01:55:34.176Z,20.48
2017-03-24T01:56:44.107Z,20.48
2017-03-24T01:57:54.353Z,20.48
2017-03-24T01:59:04.597Z,20.47
2017-03-24T02:00:14.846Z,20.39
2017-03-24T02:01:24.775Z,20.48
2017-03-24T02:02:34.697Z,20.48
2017-03-24T02:03:44.636Z,20.48
2017-03-24T02:04:54.273Z,20.51
2017-03-24T02:06:03.587Z,20.39
2017-03-24T02:07:13.516Z,20.43
2017-03-24T02:08:23.455Z,20.41
2017-03-24T02:09:33.394Z,20.48
2017-03-24T02:10:43.646Z,20.43
2017-03-24T02:11:53.892Z,20.43
2017-03-24T02:13:03.898Z,20.47
2017-03-24T02:14:14.148Z,20.42
2017-03-24T02:15:24.081Z,20.48
2017-03-24T02:16:34.330Z,20.48
2017-03-24T02:17:43.954Z,20.47
2017-03-24T02:18:53.576Z,20.51
2017-03-24T02:20:03.829Z,20.42
2017-03-24T02:21:13.759Z,20.41
2017-03-24T02:22:23.380Z,20.47
2017-03-24T02:23:33.315Z,20.42
2017-03-24T02:24:42.933Z,20.5
2017-03-24T02:25:52.856Z,20.5
2017-03-24T02:27:03.099Z,20.43
2017-03-24T02:28:13.045Z,20.51
2017-03-24T02:29:22.664Z,20.42
2017-03-24T02:30:32.596Z,20.48
2017-03-24T02:31:42.839Z,20.51
2017-03-24T02:32:53.086Z,20.47
2017-03-24T02:34:03.346Z,20.48
2017-03-24T02:35:12.962Z,20.43
2017-03-24T02:36:22.887Z,20.43
2017-03-24T02:37:32.820Z,20.43
2017-03-24T02:38:43.069Z,20.51
2017-03-24T02:39:53.010Z,20.51
2017-03-24T02:41:03.264Z,20.39
2017-03-24T02:42:13.192Z,20.36
2017-03-24T02:43:23.434Z,20.43
2017-03-24T02:44:33.375Z,20.5
2017-03-24T02:45:43.349Z,20.5
2017-03-24T02:46:53.597Z,20.47
2017-03-24T02:48:03.841Z,20.47
2017-03-24T02:49:13.770Z,20.42
2017-03-24T02:50:24.013Z,20.47
2017-03-24T02:51:34.255Z,20.5
2017-03-24T02:52:44.185Z,20.41
2017-03-24T02:53:54.114Z,20.47
2017-03-24T02:55:03.737Z,20.51
2017-03-24T02:56:13.703Z,20.48
2017-03-24T02:57:23.945Z,20.47
2017-03-24T02:58:33.882Z,20.47
2017-03-24T02:59:43.817Z,20.39
2017-03-24T03:00:54.058Z,20.38
2017-03-24T03:02:03.993Z,20.47
2017-03-24T03:03:14.241Z,20.42
2017-03-24T03:04:24.175Z,20.41
2017-03-24T03:05:33.477Z,20.42
2017-03-24T03:06:43.410Z,20.42
2017-03-24T03:07:53.658Z,20.38
2017-03-24T03:09:03.601Z,20.39
2017-03-24T03:10:13.847Z,20.42
2017-03-24T03:11:23.776Z,20.47
2017-03-24T03:12:34.036Z,20.38
2017-03-24T03:13:44.297Z,20.39
2017-03-24T03:14:54.234Z,20.42
2017-03-24T03:16:03.540Z,20.41
2017-03-24T03:17:13.787Z,20.38
2017-03-24T03:18:23.753Z,20.38
2017-03-24T03:19:34.033Z,20.41
2017-03-24T03:20:43.965Z,20.42
2017-03-24T03:21:53.889Z,20.39
2017-03-24T03:23:03.889Z,20.41
2017-03-24T03:24:14.153Z,20.43
2017-03-24T03:25:23.784Z,20.43
2017-03-24T03:26:34.027Z,20.48
2017-03-24T03:27:43.967Z,20.41
2017-03-24T03:28:54.219Z,20.41
2017-03-24T03:30:03.848Z,20.47
2017-03-24T03:31:13.772Z,20.39
2017-03-24T03:32:24.018Z,20.38
2017-03-24T03:33:34.262Z,20.38
2017-03-24T03:34:44.197Z,20.47
2017-03-24T03:35:54.135Z,20.48
2017-03-24T03:37:04.068Z,20.47
2017-03-24T03:38:14.312Z,20.42
2017-03-24T03:39:24.563Z,20.39
2017-03-24T03:40:34.809Z,20.48
2017-03-24T03:41:44.738Z,20.43
2017-03-24T03:42:54.988Z,20.39
2017-03-24T03:44:05.236Z,20.48
2017-03-24T03:45:15.482Z,20.43
2017-03-24T03:46:25.418Z,20.48
2017-03-24T03:47:35.665Z,20.39
2017-03-24T03:48:45.604Z,20.47
2017-03-24T03:49:55.851Z,20.48
2017-03-24T03:51:06.095Z,20.36
2017-03-24T03:52:16.339Z,20.41
2017-03-24T03:53:26.581Z,20.42
2017-03-24T03:54:36.566Z,20.38
2017-03-24T03:55:46.811Z,20.36
2017-03-24T03:56:57.046Z,20.43
2017-03-24T03:58:06.983Z,20.35
2017-03-24T03:59:17.235Z,20.38
2017-03-24T04:00:27.484Z,20.43
2017-03-24T04:01:37.732Z,20.36
2017-03-24T04:02:47.344Z,20.38
2017-03-24T04:03:57.596Z,20.36
2017-03-24T04:05:07.844Z,20.38
2017-03-24T04:06:18.100Z,20.36
2017-03-24T04:07:28.037Z,20.38
2017-03-24T04:08:38.288Z,20.41
2017-03-24T04:09:48.533Z,20.35
2017-03-24T04:10:58.784Z,20.38
2017-03-24T04:12:08.093Z,20.33
2017-03-24T04:13:18.347Z,20.38
2017-03-24T04:14:28.597Z,20.33
2017-03-24T04:15:38.838Z,20.38
2017-03-24T04:16:48.460Z,20.39
2017-03-24T04:17:58.716Z,20.39
2017-03-24T04:19:08.655Z,20.35
2017-03-24T04:20:18.900Z,20.36
2017-03-24T04:21:29.146Z,20.35
2017-03-24T04:22:39.393Z,20.36
2017-03-24T04:23:49.331Z,20.41
2017-03-24T04:24:59.267Z,20.38
2017-03-24T04:26:09.516Z,20.41
2017-03-24T04:27:19.138Z,20.38
2017-03-24T04:28:29.390Z,20.39
2017-03-24T04:29:39.327Z,20.39
2017-03-24T04:30:49.269Z,20.43
2017-03-24T04:31:59.260Z,20.39
2017-03-24T04:33:08.882Z,20.38
2017-03-24T04:34:18.520Z,20.48
2017-03-24T04:35:28.769Z,20.42
2017-03-24T04:36:38.701Z,20.48
2017-03-24T04:37:48.631Z,20.47
2017-03-24T04:38:58.578Z,20.38
2017-03-24T04:40:08.513Z,20.38
2017-03-24T04:41:18.440Z,20.48
2017-03-24T04:42:28.691Z,20.33
2017-03-24T04:43:38.643Z,20.41
2017-03-24T04:44:48.886Z,20.47
2017-03-24T04:45:59.127Z,20.39
2017-03-24T04:47:09.071Z,20.41
2017-03-24T04:48:18.388Z,20.42
2017-03-24T04:49:28.009Z,20.39
2017-03-24T04:50:38.249Z,20.48
2017-03-24T04:51:47.868Z,20.39
2017-03-24T04:52:58.113Z,20.41
2017-03-24T04:54:08.367Z,20.43
2017-03-24T04:55:18.614Z,20.41
2017-03-24T04:56:28.538Z,20.36
2017-03-24T04:57:38.784Z,20.38
2017-03-24T04:58:49.029Z,20.36
2017-03-24T04:59:58.966Z,20.41
2017-03-24T05:01:08.592Z,20.38
2017-03-24T05:02:18.833Z,20.38
2017-03-24T05:03:28.771Z,20.36
2017-03-24T05:04:38.397Z,20.36
2017-03-24T05:05:48.017Z,20.39
2017-03-24T05:06:58.311Z,20.38
2017-03-24T05:08:08.249Z,20.38
2017-03-24T05:09:18.494Z,20.38
2017-03-24T05:10:28.430Z,20.35
2017-03-24T05:11:38.363Z,20.41
2017-03-24T05:12:48.609Z,20.38
2017-03-24T05:13:58.863Z,20.41
2017-03-24T05:15:08.479Z,20.35
2017-03-24T05:16:18.414Z,20.35
2017-03-24T05:17:28.347Z,20.39
2017-03-24T05:18:38.289Z,20.39
2017-03-24T05:19:47.917Z,20.36
2017-03-24T05:20:58.166Z,20.39
2017-03-24T05:22:08.423Z,20.33
2017-03-24T05:23:18.671Z,20.32
2017-03-24T05:24:28.611Z,20.36
2017-03-24T05:25:38.857Z,20.41
2017-03-24T05:26:48.798Z,20.36
2017-03-24T05:27:59.047Z,20.33
2017-03-24T05:29:09.319Z,20.36
2017-03-24T05:30:19.573Z,20.39
2017-03-24T05:31:29.821Z,20.39
2017-03-24T05:32:39.440Z,20.43
2017-03-24T05:33:49.379Z,20.36
2017-03-24T05:34:59.321Z,20.38
2017-03-24T05:36:09.280Z,20.38
2017-03-24T05:37:19.520Z,20.39
2017-03-24T05:38:29.144Z,20.38
2017-03-24T05:39:39.393Z,20.41
2017-03-24T05:40:49.331Z,20.33
2017-03-24T05:41:59.266Z,20.48
2017-03-24T05:43:08.887Z,20.38
2017-03-24T05:44:18.821Z,20.33
2017-03-24T05:45:29.064Z,20.39
2017-03-24T05:46:38.995Z,20.41
2017-03-24T05:47:49.280Z,20.48
2017-03-24T05:48:59.217Z,20.48
2017-03-24T05:50:09.461Z,20.41
2017-03-24T05:51:19.398Z,20.42
2017-03-24T05:52:29.334Z,20.43
2017-03-24T05:53:39.580Z,20.47
2017-03-24T05:54:49.518Z,20.41
2017-03-24T05:55:59.763Z,20.43
2017-03-24T05:57:10.019Z,20.47
2017-03-24T05:58:19.637Z,20.39
2017-03-24T05:59:29.566Z,20.47
2017-03-24T06:00:39.185Z,20.43
2017-03-24T06:01:49.113Z,20.48
2017-03-24T06:02:58.733Z,20.43
2017-03-24T06:04:08.669Z,20.47
2017-03-24T06:05:18.917Z,20.48
2017-03-24T06:06:29.185Z,20.42
2017-03-24T06:07:39.124Z,20.39
2017-03-24T06:08:49.056Z,20.42
2017-03-24T06:09:59.307Z,20.47
2017-03-24T06:11:09.247Z,20.39
2017-03-24T06:12:19.493Z,20.43
2017-03-24T06:13:29.810Z,20.47
2017-03-24T06:14:39.748Z,20.48
2017-03-24T06:15:49.683Z,20.39
2017-03-24T06:16:59.922Z,20.43
2017-03-24T06:18:09.588Z,20.48
2017-03-24T06:19:19.531Z,20.47
2017-03-24T06:20:29.784Z,20.38
2017-03-24T06:21:40.036Z,20.38
2017-03-24T06:22:50.284Z,20.38
2017-03-24T06:24:00.536Z,20.38
2017-03-24T06:25:10.783Z,20.41
2017-03-24T06:26:21.026Z,20.42
2017-03-24T06:27:31.285Z,20.35
2017-03-24T06:28:41.226Z,20.42
2017-03-24T06:29:51.160Z,20.38
2017-03-24T06:31:01.092Z,20.36
2017-03-24T06:32:10.715Z,20.41
2017-03-24T06:33:20.650Z,20.36
2017-03-24T06:34:30.274Z,20.36
2017-03-24T06:35:40.209Z,20.33
2017-03-24T06:36:49.831Z,20.32
2017-03-24T06:37:59.131Z,20.38
2017-03-24T06:39:09.378Z,20.39
2017-03-24T06:40:19.314Z,20.31
2017-03-24T06:41:29.561Z,20.38
2017-03-24T06:42:39.853Z,20.35
2017-03-24T06:43:50.102Z,20.35
2017-03-24T06:45:00.066Z,20.36
2017-03-24T06:46:10.308Z,20.38
2017-03-24T06:47:20.237Z,20.36
2017-03-24T06:48:30.173Z,20.39
2017-03-24T06:49:39.793Z,20.43
2017-03-24T06:50:49.726Z,20.36
2017-03-24T06:51:59.650Z,20.48
2017-03-24T06:53:09.266Z,20.41
2017-03-24T06:54:19.516Z,20.43
2017-03-24T06:55:29.449Z,20.42
2017-03-24T06:56:39.692Z,20.36
2017-03-24T06:57:49.630Z,20.42
2017-03-24T06:58:59.566Z,20.42
2017-03-24T07:00:09.204Z,20.47
2017-03-24T07:01:19.467Z,20.48
2017-03-24T07:02:29.708Z,20.47
2017-03-24T07:03:39.334Z,20.47
2017-03-24T07:04:48.962Z,20.48
2017-03-24T07:05:58.895Z,20.47
2017-03-24T07:07:08.512Z,20.43
2017-03-24T07:08:18.447Z,20.5
2017-03-24T07:09:28.385Z,20.42
2017-03-24T07:10:38.633Z,20.48
2017-03-24T07:11:47.938Z,20.43
2017-03-24T07:12:57.877Z,20.48
2017-03-24T07:14:07.499Z,20.51
2017-03-24T07:15:17.445Z,20.48
2017-03-24T07:16:27.377Z,20.51
2017-03-24T07:17:37.615Z,20.41
2017-03-24T07:18:47.555Z,20.51
2017-03-24T07:19:57.206Z,20.41
2017-03-24T07:21:07.144Z,20.42
2017-03-24T07:22:17.070Z,20.5
2017-03-24T07:23:26.697Z,20.51
2017-03-24T07:24:36.638Z,20.51
2017-03-24T07:25:46.568Z,20.42
2017-03-24T07:26:56.193Z,20.41
2017-03-24T07:28:05.819Z,20.48
2017-03-24T07:29:15.775Z,20.48
2017-03-24T07:30:25.710Z,20.5
2017-03-24T07:31:35.641Z,20.51
2017-03-24T07:32:45.581Z,20.47
2017-03-24T07:33:55.510Z,20.43
2017-03-24T07:35:05.127Z,20.52
2017-03-24T07:36:15.058Z,20.47
2017-03-24T07:37:24.986Z,20.51
2017-03-24T07:38:34.918Z,20.5
2017-03-24T07:39:44.869Z,20.48
2017-03-24T07:40:54.801Z,20.41
2017-03-24T07:42:05.046Z,20.42
2017-03-24T07:43:15.298Z,20.42
2017-03-24T07:44:25.236Z,20.51
2017-03-24T07:45:34.866Z,20.48
2017-03-24T07:46:44.488Z,20.42
2017-03-24T07:47:54.422Z,20.41
2017-03-24T07:49:04.364Z,20.48
2017-03-24T07:50:14.001Z,20.43
2017-03-24T07:51:23.971Z,20.42
2017-03-24T07:52:34.251Z,20.48
2017-03-24T07:53:44.185Z,20.43
2017-03-24T07:54:53.811Z,20.39
2017-03-24T07:56:04.059Z,20.43
2017-03-24T07:57:14.329Z,20.47
2017-03-24T07:58:23.945Z,20.48
2017-03-24T07:59:33.879Z,20.47
2017-03-24T08:00:43.806Z,20.51
2017-03-24T08:01:54.051Z,20.47
2017-03-24T08:03:04.293Z,20.5
2017-03-24T08:04:14.215Z,20.51
2017-03-24T08:05:24.454Z,20.48
2017-03-24T08:06:34.076Z,20.43
2017-03-24T08:07:44.012Z,20.5
2017-03-24T08:08:54.248Z,20.48
2017-03-24T08:10:04.489Z,20.55
2017-03-24T08:11:14.427Z,20.43
2017-03-24T08:12:24.039Z,20.57
2017-03-24T08:13:33.972Z,20.57
2017-03-24T08:14:43.900Z,20.55
2017-03-24T08:15:53.826Z,20.54
2017-03-24T08:17:04.061Z,20.58
2017-03-24T08:18:13.995Z,20.62
2017-03-24T08:19:23.924Z,20.62
2017-03-24T08:20:34.209Z,20.58
2017-03-24T08:21:43.834Z,20.59
2017-03-24T08:22:54.074Z,20.62
2017-03-24T08:24:04.312Z,20.64
2017-03-24T08:25:14.550Z,20.62
2017-03-24T08:26:24.472Z,20.61
2017-03-24T08:27:34.090Z,20.61
2017-03-24T08:28:44.327Z,20.64
2017-03-24T08:29:54.261Z,20.64
2017-03-24T08:31:03.562Z,20.57
2017-03-24T08:32:13.809Z,20.61
2017-03-24T08:33:23.461Z,20.58
2017-03-24T08:34:33.704Z,20.58
2017-03-24T08:35:43.951Z,20.64
2017-03-24T08:36:54.189Z,20.58
2017-03-24T08:38:04.122Z,20.66
2017-03-24T08:39:14.067Z,20.55
2017-03-24T08:40:23.364Z,20.62
2017-03-24T08:41:33.605Z,20.59
2017-03-24T08:42:43.230Z,20.58
2017-03-24T08:43:53.159Z,20.66
2017-03-24T08:45:03.409Z,20.62
2017-03-24T08:46:13.654Z,20.66
2017-03-24T08:47:23.577Z,20.67
2017-03-24T08:48:33.521Z,20.69
2017-03-24T08:49:43.490Z,20.66
2017-03-24T08:50:53.414Z,20.66
2017-03-24T08:52:03.340Z,20.62
2017-03-24T08:53:13.269Z,20.55
2017-03-24T08:54:23.513Z,20.66
2017-03-24T08:55:33.434Z,20.61
2017-03-24T08:56:43.673Z,20.66
2017-03-24T08:57:53.917Z,20.66
2017-03-24T08:59:03.845Z,20.62
2017-03-24T09:00:13.779Z,20.69
2017-03-24T09:01:23.708Z,20.58
2017-03-24T09:02:33.336Z,20.67
2017-03-24T09:03:43.326Z,20.62
2017-03-24T09:04:53.571Z,20.66
2017-03-24T09:06:03.809Z,20.64
2017-03-24T09:07:14.056Z,20.66
2017-03-24T09:08:23.985Z,20.66
2017-03-24T09:09:33.915Z,20.62
2017-03-24T09:10:43.842Z,20.66
2017-03-24T09:11:53.776Z,20.66
2017-03-24T09:13:04.019Z,20.59
2017-03-24T09:14:13.647Z,20.61
2017-03-24T09:15:23.890Z,20.59
2017-03-24T09:16:33.195Z,20.57
2017-03-24T09:17:43.128Z,20.62
2017-03-24T09:18:52.735Z,20.66
2017-03-24T09:20:02.977Z,20.61
2017-03-24T09:21:12.913Z,20.57
2017-03-24T09:22:22.843Z,20.67
2017-03-24T09:23:32.764Z,20.61
2017-03-24T09:24:42.696Z,20.62
2017-03-24T09:25:52.932Z,20.61
2017-03-24T09:27:03.174Z,20.66
2017-03-24T09:28:13.103Z,20.69
2017-03-24T09:29:23.025Z,20.54
2017-03-24T09:30:32.950Z,20.61
2017-03-24T09:31:42.879Z,20.61
2017-03-24T09:32:52.824Z,20.64
2017-03-24T09:34:02.122Z,20.59
2017-03-24T09:35:12.049Z,20.62
2017-03-24T09:36:22.285Z,20.66
2017-03-24T09:37:32.212Z,20.64
2017-03-24T09:38:42.137Z,20.66
2017-03-24T09:39:52.376Z,20.61
2017-03-24T09:41:02.620Z,20.61
2017-03-24T09:42:12.861Z,20.66
2017-03-24T09:43:23.100Z,20.69
2017-03-24T09:44:33.042Z,20.58
2017-03-24T09:45:43.294Z,20.64
2017-03-24T09:46:53.223Z,20.61
2017-03-24T09:48:03.149Z,20.64
2017-03-24T09:49:13.416Z,20.59
2017-03-24T09:50:23.664Z,20.61
2017-03-24T09:51:33.590Z,20.62
2017-03-24T09:52:43.520Z,20.58
2017-03-24T09:53:53.448Z,20.62
2017-03-24T09:55:03.702Z,20.58
2017-03-24T09:56:13.365Z,20.52
2017-03-24T09:57:23.603Z,20.54
2017-03-24T09:58:33.531Z,20.61
2017-03-24T09:59:43.452Z,20.57
2017-03-24T10:00:53.386Z,20.59
2017-03-24T10:02:03.325Z,20.59
2017-03-24T10:03:12.965Z,20.66
2017-03-24T10:04:23.207Z,20.61
2017-03-24T10:05:32.503Z,20.61
2017-03-24T10:06:42.751Z,20.62
2017-03-24T10:07:52.989Z,20.57
2017-03-24T10:09:02.292Z,20.57
2017-03-24T10:10:12.222Z,20.62
2017-03-24T10:11:22.151Z,20.64
2017-03-24T10:12:32.399Z,20.59
2017-03-24T10:13:42.636Z,20.55
2017-03-24T10:14:52.876Z,20.58
2017-03-24T10:16:03.122Z,20.59
2017-03-24T10:17:13.359Z,20.61
2017-03-24T10:18:23.601Z,20.55
2017-03-24T10:19:33.220Z,20.57
2017-03-24T10:20:43.162Z,20.52
2017-03-24T10:21:53.107Z,20.62
2017-03-24T10:23:02.728Z,20.59
2017-03-24T10:24:12.345Z,20.58
2017-03-24T10:25:21.651Z,20.59
2017-03-24T10:26:31.894Z,20.57
2017-03-24T10:27:41.194Z,20.57
2017-03-24T10:28:51.129Z,20.58
2017-03-24T10:30:01.056Z,20.54
2017-03-24T10:31:10.980Z,20.62
2017-03-24T10:32:21.228Z,20.55
2017-03-24T10:33:30.526Z,20.55
2017-03-24T10:34:40.506Z,20.59
2017-03-24T10:35:50.751Z,20.59
2017-03-24T10:37:01.001Z,20.55
2017-03-24T10:38:10.300Z,20.62
2017-03-24T10:39:19.917Z,20.67
2017-03-24T10:40:30.158Z,20.59
2017-03-24T10:41:40.084Z,20.58
2017-03-24T10:42:50.005Z,20.61
2017-03-24T10:43:59.936Z,20.59
2017-03-24T10:45:09.553Z,20.57
2017-03-24T10:46:19.176Z,20.59
2017-03-24T10:47:28.797Z,20.61
2017-03-24T10:48:38.410Z,20.59
2017-03-24T10:49:48.653Z,20.59
2017-03-24T10:50:58.894Z,20.55
2017-03-24T10:52:08.824Z,20.58
2017-03-24T10:53:18.767Z,20.58
2017-03-24T10:54:28.686Z,20.62
2017-03-24T10:55:38.296Z,20.59
2017-03-24T10:56:48.536Z,20.61
2017-03-24T10:57:58.468Z,20.64
2017-03-24T10:59:08.395Z,20.54
2017-03-24T11:00:18.323Z,20.61
2017-03-24T11:01:28.259Z,20.64
2017-03-24T11:02:38.193Z,20.59
2017-03-24T11:03:48.136Z,20.61
2017-03-24T11:04:58.061Z,20.59
2017-03-24T11:06:07.991Z,20.57
2017-03-24T11:07:17.921Z,20.61
2017-03-24T11:08:27.896Z,20.69
2017-03-24T11:09:38.149Z,20.58
2017-03-24T11:10:47.760Z,20.64
2017-03-24T11:11:57.373Z,20.58
2017-03-24T11:13:07.608Z,20.57
2017-03-24T11:14:17.848Z,20.61
2017-03-24T11:15:27.468Z,20.57
2017-03-24T11:16:37.099Z,20.61
2017-03-24T11:17:47.345Z,20.58
2017-03-24T11:18:57.276Z,20.57
2017-03-24T11:20:07.216Z,20.55
2017-03-24T11:21:17.467Z,20.52
2017-03-24T11:22:27.389Z,20.57
2017-03-24T11:23:37.003Z,20.62
2017-03-24T11:24:46.936Z,20.58
2017-03-24T11:25:56.863Z,20.59
2017-03-24T11:27:06.478Z,20.59
2017-03-24T11:28:16.449Z,20.58
2017-03-24T11:29:26.374Z,20.55
2017-03-24T11:30:35.681Z,20.5
2017-03-24T11:31:45.607Z,20.52
2017-03-24T11:32:55.542Z,20.55
2017-03-24T11:34:05.793Z,20.62
2017-03-24T11:35:15.723Z,20.5
2017-03-24T11:36:25.031Z,20.52
2017-03-24T11:37:35.276Z,20.47
2017-03-24T11:38:45.516Z,20.47
2017-03-24T11:39:55.472Z,20.48
2017-03-24T11:41:05.410Z,20.43
2017-03-24T11:42:15.340Z,20.52
2017-03-24T11:43:25.583Z,20.58
2017-03-24T11:44:35.519Z,20.48
2017-03-24T11:45:45.456Z,20.55
2017-03-24T11:46:55.384Z,20.57
2017-03-24T11:48:05.665Z,20.5
2017-03-24T11:49:15.602Z,20.51
2017-03-24T11:50:25.521Z,20.47
2017-03-24T11:51:35.473Z,20.43
2017-03-24T11:52:45.090Z,20.5
2017-03-24T11:53:55.341Z,20.48
2017-03-24T11:55:04.640Z,20.5
2017-03-24T11:56:14.879Z,20.48
2017-03-24T11:57:24.803Z,20.48
2017-03-24T11:58:35.052Z,20.55
2017-03-24T11:59:44.671Z,20.48
2017-03-24T12:00:54.597Z,20.58
2017-03-24T12:02:04.839Z,20.55
2017-03-24T12:03:14.463Z,20.61
2017-03-24T12:04:24.093Z,20.48
2017-03-24T12:05:33.700Z,20.5
2017-03-24T12:06:43.623Z,20.5
2017-03-24T12:07:53.546Z,20.52
2017-03-24T12:09:03.789Z,20.51
2017-03-24T12:10:13.403Z,20.55
2017-03-24T12:11:23.330Z,20.59
2017-03-24T12:12:33.257Z,20.59
2017-03-24T12:13:43.500Z,20.55
2017-03-24T12:14:53.748Z,20.57
2017-03-24T12:16:03.678Z,20.58
2017-03-24T12:17:13.914Z,20.52
2017-03-24T12:18:23.219Z,20.58
2017-03-24T12:19:33.456Z,20.55
2017-03-24T12:20:42.757Z,20.52
2017-03-24T12:21:53.000Z,20.57
2017-03-24T12:23:03.285Z,20.55
2017-03-24T12:24:13.525Z,20.52
2017-03-24T12:25:23.142Z,20.57
2017-03-24T12:26:32.763Z,20.58
2017-03-24T12:27:43.002Z,20.62
2017-03-24T12:28:52.618Z,20.51
2017-03-24T12:30:02.543Z,20.58
2017-03-24T12:31:11.538Z,20.59
2017-03-24T12:32:21.783Z,20.58
2017-03-24T12:33:32.025Z,20.58
2017-03-24T12:34:41.657Z,20.59
2017-03-24T12:35:51.909Z,20.58
2017-03-24T12:37:02.151Z,20.51
2017-03-24T12:38:12.394Z,20.58
2017-03-24T12:39:22.318Z,20.54
2017-03-24T12:40:32.565Z,20.57
2017-03-24T12:41:42.814Z,20.58
2017-03-24T12:42:53.060Z,20.58
2017-03-24T12:44:02.668Z,20.52
2017-03-24T12:45:12.600Z,20.5
2017-03-24T12:46:22.529Z,20.51
2017-03-24T12:47:32.455Z,20.55
2017-03-24T12:48:42.381Z,20.55
2017-03-24T12:49:51.993Z,20.61
2017-03-24T12:51:01.919Z,20.58
2017-03-24T12:52:12.209Z,20.57
2017-03-24T12:53:21.521Z,20.55
2017-03-24T12:54:31.462Z,20.59
2017-03-24T12:55:40.765Z,20.5
2017-03-24T12:56:50.703Z,20.5
2017-03-24T12:58:00.950Z,20.58
2017-03-24T12:59:10.566Z,20.59
2017-03-24T13:00:20.820Z,20.58
2017-03-24T13:01:30.463Z,20.62
2017-03-24T13:02:40.399Z,20.55
2017-03-24T13:03:50.325Z,20.58
2017-03-24T13:05:00.262Z,20.61
2017-03-24T13:06:10.203Z,20.61
2017-03-24T13:07:19.515Z,20.48
2017-03-24T13:08:29.755Z,20.5
2017-03-24T13:09:39.995Z,20.59
2017-03-24T13:10:49.926Z,20.59
2017-03-24T13:11:59.856Z,20.57
2017-03-24T13:13:09.796Z,20.59
2017-03-24T13:14:19.418Z,20.54
2017-03-24T13:15:29.034Z,20.59
2017-03-24T13:16:38.965Z,20.58
2017-03-24T13:17:48.939Z,20.64
2017-03-24T13:18:59.215Z,20.61
2017-03-24T13:20:09.463Z,20.59
2017-03-24T13:21:19.394Z,20.62
2017-03-24T13:22:29.327Z,20.59
2017-03-24T13:23:38.946Z,20.69
2017-03-24T13:24:49.183Z,20.57
2017-03-24T13:25:59.442Z,20.55
2017-03-24T13:27:09.077Z,20.59
2017-03-24T13:28:18.696Z,20.61
2017-03-24T13:29:28.313Z,20.64
2017-03-24T13:30:38.564Z,20.66
2017-03-24T13:31:48.509Z,20.57
2017-03-24T13:32:58.449Z,20.61
2017-03-24T13:34:07.784Z,20.61
2017-03-24T13:35:17.719Z,20.62
2017-03-24T13:36:27.657Z,20.57
2017-03-24T13:37:37.583Z,20.59
2017-03-24T13:38:47.821Z,20.54
2017-03-24T13:39:57.757Z,20.59
2017-03-24T13:41:07.061Z,20.64
2017-03-24T13:42:16.999Z,20.57
2017-03-24T13:43:26.936Z,20.64
2017-03-24T13:44:36.864Z,20.61
2017-03-24T13:45:46.800Z,20.61
2017-03-24T13:46:56.731Z,20.61
2017-03-24T13:48:06.978Z,20.66
2017-03-24T13:49:16.912Z,20.62
2017-03-24T13:50:26.535Z,20.64
2017-03-24T13:51:36.780Z,20.64
2017-03-24T13:52:47.021Z,20.61
2017-03-24T13:53:57.266Z,20.67
2017-03-24T13:55:07.197Z,20.64
2017-03-24T13:56:16.516Z,20.64
2017-03-24T13:57:26.454Z,20.61
2017-03-24T13:58:36.695Z,20.61
2017-03-24T13:59:46.934Z,20.66
2017-03-24T14:00:56.556Z,20.58
2017-03-24T14:02:06.800Z,20.59
2017-03-24T14:03:17.040Z,20.58
2017-03-24T14:04:26.653Z,20.61
2017-03-24T14:05:36.270Z,20.62
2017-03-24T14:06:46.518Z,20.62
2017-03-24T14:07:56.762Z,20.66
2017-03-24T14:09:07.012Z,20.61
2017-03-24T14:10:17.263Z,20.64
2017-03-24T14:11:27.510Z,20.64
2017-03-24T14:12:37.751Z,20.62
2017-03-24T14:13:47.686Z,20.61
2017-03-24T14:14:56.990Z,20.59
2017-03-24T14:16:06.934Z,20.66
2017-03-24T14:17:17.175Z,20.66
2017-03-24T14:18:26.478Z,20.66
2017-03-24T14:19:36.729Z,20.61
2017-03-24T14:20:46.672Z,20.57
2017-03-24T14:21:56.607Z,20.62
2017-03-24T14:23:06.853Z,20.62
2017-03-24T14:24:16.777Z,20.62
2017-03-24T14:25:26.707Z,20.64
2017-03-24T14:26:36.959Z,20.69
2017-03-24T14:27:46.897Z,20.57
2017-03-24T14:28:56.879Z,20.67
2017-03-24T14:30:06.813Z,20.58
2017-03-24T14:31:16.121Z,20.64
2017-03-24T14:32:26.051Z,20.59
2017-03-24T14:33:35.990Z,20.64
2017-03-24T14:34:46.232Z,20.62
2017-03-24T14:35:56.479Z,20.57
2017-03-24T14:37:05.486Z,20.59
2017-03-24T14:38:14.808Z,20.61
2017-03-24T14:39:25.050Z,20.66
2017-03-24T14:40:34.986Z,20.66
2017-03-24T14:41:44.616Z,20.66
2017-03-24T14:42:54.859Z,20.59
2017-03-24T14:44:04.788Z,20.7
2017-03-24T14:45:14.721Z,20.59
2017-03-24T14:46:24.347Z,20.61
2017-03-24T14:47:34.587Z,20.59
2017-03-24T14:48:44.515Z,20.59
2017-03-24T14:49:54.757Z,20.7
2017-03-24T14:51:05.017Z,20.59
2017-03-24T14:52:14.955Z,20.59
2017-03-24T14:53:24.255Z,20.66
2017-03-24T14:54:34.179Z,20.64
2017-03-24T14:55:44.128Z,20.74
2017-03-24T14:56:54.422Z,20.67
2017-03-24T14:58:04.361Z,20.61
2017-03-24T14:59:13.984Z,20.69
2017-03-24T15:00:24.230Z,20.76
2017-03-24T15:01:33.574Z,20.69
2017-03-24T15:02:43.820Z,20.72
2017-03-24T15:03:53.746Z,20.7
2017-03-24T15:05:03.990Z,20.59
2017-03-24T15:06:14.259Z,20.73
2017-03-24T15:07:24.190Z,20.69
2017-03-24T15:08:33.810Z,20.72
2017-03-24T15:09:44.054Z,20.69